Data for 11/06/2005

Time Sea-Level Adjusted Pressure Absolute Pressure Temperature Relative Humidity Dew Point   
(mb) (inHg) (mb) (inHg) (C) (F) (%) (C) (F)
00:05 1007 29.74 836 24.69 1.4 34.5 52 -7.3 18.8
00:10 1007 29.74 836 24.69 1.3 34.3 53 -7.2 19.1
00:15 1007 29.74 836 24.69 1.4 34.5 54 -7 19.4
00:20 1007 29.74 836 24.69 1.4 34.5 54 -6.9 19.5
00:25 1007 29.74 836 24.69 1.5 34.7 55 -6.7 20
00:30 1007 29.74 836 24.69 1.5 34.7 55 -6.6 20.1
00:35 1007 29.74 836 24.69 1.4 34.5 56 -6.6 20.2
00:40 1007 29.74 836 24.69 1.3 34.3 56 -6.6 20.2
00:45 1007 29.74 836 24.69 1.3 34.4 56 -6.4 20.4
00:50 1007 29.74 836 24.69 1.4 34.5 56 -6.4 20.5
00:55 1007 29.74 836 24.69 1.4 34.6 57 -6.2 20.9
01:00 1007 29.74 836 24.69 1.4 34.6 57 -6.1 21.1
01:05 1007 29.74 836 24.69 1.4 34.6 58 -6 21.1
01:10 1007 29.74 836 24.69 1.4 34.6 58 -5.9 21.3
01:15 1006 29.71 836 24.69 1.4 34.5 58 -6 21.1
01:20 1006 29.71 836 24.69 1.4 34.5 59 -5.7 21.7
01:25 1006 29.71 836 24.69 1.3 34.4 61 -5.4 22.2
01:30 1006 29.71 835 24.66 1.1 34.1 64 -4.9 23.2
01:35 1006 29.71 835 24.66 0.9 33.7 66 -4.7 23.6
01:40 1006 29.71 835 24.66 0.9 33.6 68 -4.4 24.1
01:45 1006 29.71 835 24.66 0.8 33.4 69 -4.2 24.4
01:50 1006 29.71 835 24.66 0.6 33.1 71 -4.1 24.6
01:55 1006 29.71 835 24.66 0.6 33.1 72 -3.9 25
02:00 1006 29.71 835 24.66 0.6 33 73 -3.7 25.4
02:05 1006 29.71 835 24.66 0.5 32.9 74 -3.7 25.4
02:10 1006 29.71 835 24.66 0.6 33 73 -3.7 25.4
02:15 1006 29.71 835 24.66 0.6 33.1 73 -3.7 25.4
02:20 1006 29.71 835 24.66 0.6 33.2 73 -3.7 25.3
02:25 1006 29.71 836 24.69 0.7 33.2 73 -3.7 25.3
02:30 1006 29.71 835 24.66 0.7 33.3 73 -3.6 25.5
02:35 1006 29.71 835 24.66 0.7 33.3 73 -3.6 25.4
02:40 1006 29.71 835 24.66 0.7 33.3 73 -3.6 25.5
02:45 1006 29.71 835 24.66 0.8 33.4 72 -3.6 25.5
02:50 1006 29.71 835 24.66 0.8 33.4 73 -3.6 25.6
02:55 1006 29.71 835 24.66 0.8 33.4 73 -3.6 25.6
03:00 1006 29.71 835 24.66 0.8 33.4 73 -3.5 25.7
03:05 1006 29.71 835 24.66 0.8 33.4 73 -3.4 25.8
03:10 1006 29.71 835 24.66 0.8 33.4 74 -3.4 26
03:15 1006 29.71 835 24.66 0.8 33.4 74 -3.4 25.9
03:20 1006 29.71 835 24.66 0.7 33.2 75 -3.3 26.1
03:25 1006 29.71 835 24.66 0.6 33.1 75 -3.3 26.1
03:30 1006 29.71 835 24.66 0.6 33.1 75 -3.3 26.1
03:35 1006 29.71 835 24.66 0.7 33.3 75 -3.3 26.1
03:40 1006 29.71 835 24.66 0.7 33.3 75 -3.2 26.3
03:45 1006 29.71 835 24.66 0.7 33.2 75 -3.3 26.1
03:50 1006 29.71 835 24.66 0.7 33.2 75 -3.3 26.1
03:55 1006 29.71 835 24.66 0.7 33.2 75 -3.3 26
04:00 1006 29.71 835 24.66 0.7 33.3 74 -3.5 25.8
04:05 1006 29.71 835 24.66 0.8 33.5 74 -3.3 26.1
04:10 1006 29.71 835 24.66 0.7 33.3 74 -3.4 25.8
04:15 1006 29.71 835 24.66 0.8 33.5 73 -3.4 25.8
04:20 1006 29.71 835 24.66 0.8 33.5 74 -3.3 26
04:25 1006 29.71 835 24.66 0.8 33.4 75 -3.3 26.1
04:30 1006 29.71 835 24.66 0.7 33.3 75 -3.2 26.2
04:35 1006 29.71 835 24.66 0.6 33.1 75 -3.3 26
04:40 1006 29.71 835 24.66 0.8 33.4 73 -3.5 25.8
04:45 1006 29.71 835 24.66 0.9 33.6 73 -3.4 25.8
04:50 1006 29.71 835 24.66 1 33.8 72 -3.4 25.9
04:55 1006 29.71 835 24.66 1 33.7 73 -3.4 25.9
05:00 1006 29.71 835 24.66 0.8 33.5 73 -3.5 25.7
05:05 1006 29.71 835 24.66 0.8 33.4 73 -3.5 25.7
05:10 1006 29.71 835 24.66 0.9 33.7 72 -3.5 25.6
05:15 1006 29.71 836 24.69 1 33.7 72 -3.5 25.7
05:20 1006 29.71 836 24.69 1 33.9 74 -3.2 26.3
05:25 1006 29.71 836 24.69 0.9 33.6 75 -3.1 26.5
05:30 1007 29.74 836 24.69 0.9 33.5 77 -2.8 27
05:35 1007 29.74 836 24.69 0.6 33 79 -2.7 27.1
05:40 1007 29.74 836 24.69 0.4 32.7 80 -2.7 27.2
05:45 1007 29.74 836 24.69 0.3 32.5 81 -2.7 27.2
05:50 1007 29.74 836 24.69 0.4 32.6 81 -2.6 27.4
05:55 1007 29.74 836 24.69 0.2 32.3 81 -2.6 27.3
06:00 1007 29.74 836 24.69 0.3 32.5 81 -2.6 27.3
06:05 1007 29.74 836 24.69 0.4 32.7 80 -2.6 27.3
06:10 1007 29.74 836 24.69 0.3 32.5 81 -2.5 27.4
06:15 1007 29.74 836 24.69 0.4 32.6 80 -2.6 27.3
06:20 1007 29.74 836 24.69 0.5 33 80 -2.6 27.4
06:25 1007 29.74 836 24.69 0.3 32.5 81 -2.6 27.3
06:30 1007 29.74 836 24.69 0.5 32.8 77 -3 26.6
06:35 1007 29.74 836 24.69 1 33.7 78 -2.4 27.7
06:40 1007 29.74 836 24.69 0.8 33.4 81 -2.1 28.2
06:45 1007 29.74 836 24.69 0.5 32.8 82 -2.3 27.9
06:50 1007 29.74 836 24.69 0.3 32.5 82 -2.4 27.7
06:55 1007 29.74 836 24.69 0.5 32.8 81 -2.4 27.7
07:00 1007 29.74 836 24.69 0.9 33.7 77 -2.7 27.2
07:05 1007 29.74 836 24.69 1.4 34.5 76 -2.4 27.6
07:10 1007 29.74 836 24.69 1.6 34.9 76 -2.2 28.1
07:15 1007 29.74 837 24.72 1.4 34.6 76 -2.3 27.9
07:20 1007 29.74 837 24.72 1.3 34.4 76 -2.5 27.6
07:25 1008 29.77 837 24.72 1.6 34.9 75 -2.3 27.8
07:30 1008 29.77 837 24.72 1.7 35 74 -2.5 27.6
07:35 1008 29.77 837 24.72 1.8 35.3 74 -2.4 27.7
07:40 1008 29.77 837 24.72 1.9 35.3 74 -2.3 27.9
07:45 1008 29.77 837 24.72 2 35.7 73 -2.2 28
07:50 1008 29.77 837 24.72 2.1 35.8 74 -2.1 28.2
07:55 1008 29.77 837 24.72 1.7 35 76 -2 28.3
08:00 1008 29.77 837 24.72 1.4 34.6 78 -2 28.4
08:05 1008 29.77 837 24.72 1.4 34.6 76 -2.3 27.9
08:10 1008 29.77 837 24.72 1.6 34.9 75 -2.3 27.9
08:15 1008 29.77 837 24.72 2.6 36.6 70 -2.4 27.6
08:20 1008 29.77 837 24.72 3.5 38.3 67 -2.1 28.2
08:25 1008 29.77 837 24.72 4.7 40.5 60 -2.4 27.8
08:30 1008 29.77 837 24.72 5.6 42 58 -2.1 28.2
08:35 1008 29.77 837 24.72 5.7 42.3 57 -2 28.4
08:40 1008 29.77 837 24.72 6.2 43.2 58 -1.4 29.5
08:45 1008 29.77 837 24.72 5.8 42.5 59 -1.6 29.2
08:50 1008 29.77 837 24.72 5.3 41.5 63 -1.3 29.7
08:55 1008 29.77 837 24.72 4.5 40.1 65 -1.6 29.2
09:00 1008 29.77 837 24.72 4.2 39.6 66 -1.6 29.1
09:05 1008 29.77 837 24.72 4.1 39.3 66 -1.7 29
09:10 1008 29.77 837 24.72 4 39.3 67 -1.6 29.1
09:15 1008 29.77 837 24.72 4 39.2 67 -1.5 29.2
09:20 1008 29.77 837 24.72 4.2 39.6 67 -1.4 29.5
09:25 1008 29.77 837 24.72 4.3 39.7 67 -1.4 29.5
09:30 1008 29.77 837 24.72 4.1 39.3 68 -1.3 29.7
09:35 1008 29.77 837 24.72 4.1 39.4 67 -1.4 29.5
09:40 1008 29.77 837 24.72 4.3 39.7 67 -1.3 29.6
09:45 1008 29.77 837 24.72 4.4 40 66 -1.3 29.7
09:50 1008 29.77 837 24.72 4.5 40.1 67 -1.2 29.9
09:55 1008 29.77 837 24.72 4.5 40.2 67 -1.2 29.9
10:00 1008 29.77 837 24.72 4.7 40.5 66 -1.1 29.9
10:05 1008 29.77 837 24.72 5.2 41.4 64 -1 30.2
10:10 1008 29.77 837 24.72 5.6 42 63 -1 30.2
10:15 1008 29.77 837 24.72 5.8 42.5 62 -1 30.2
10:20 1008 29.77 837 24.72 6 42.8 61 -0.9 30.4
10:25 1008 29.77 837 24.72 5.7 42.3 63 -0.7 30.7
10:30 1008 29.77 837 24.72 5.4 41.8 64 -0.8 30.5
10:35 1008 29.77 838 24.75 5.8 42.4 62 -0.9 30.4
10:40 1008 29.77 838 24.75 6.2 43.2 60 -1 30.2
10:45 1008 29.77 838 24.75 6.6 43.9 57 -1.2 29.8
10:50 1008 29.77 837 24.72 7.1 44.7 54 -1.5 29.3
10:55 1008 29.77 838 24.75 7.3 45.1 55 -1.1 30
11:00 1008 29.77 838 24.75 7.4 45.3 55 -1 30.2
11:05 1008 29.77 837 24.72 7.5 45.5 55 -1 30.2
11:10 1008 29.77 837 24.72 7.6 45.7 50 -2.1 28.2
11:15 1008 29.77 837 24.72 7.9 46.1 50 -1.9 28.7
11:20 1008 29.77 837 24.72 7.9 46.1 42 -4.2 24.5
11:25 1008 29.77 837 24.72 8.2 46.8 42 -4 24.8
11:30 1008 29.77 837 24.72 8.4 47.1 38 -5.1 22.8
11:35 1008 29.77 837 24.72 8.4 47.2 37 -5.3 22.4
11:40 1008 29.77 837 24.72 8.5 47.3 38 -4.9 23.1
11:45 1008 29.77 837 24.72 8.5 47.3 38 -4.9 23.2
11:50 1008 29.77 837 24.72 8.5 47.2 38 -4.9 23.1
11:55 1008 29.77 837 24.72 8.3 47 38 -5.3 22.5
12:00 1008 29.77 837 24.72 8.4 47.1 36 -5.8 21.5
12:05 1008 29.77 837 24.72 8.4 47.1 38 -5.2 22.6
12:10 1008 29.77 837 24.72 8.4 47.1 37 -5.3 22.4
12:15 1008 29.77 837 24.72 8.3 46.9 38 -5.1 22.7
12:20 1008 29.77 837 24.72 8.2 46.7 38 -5.1 22.7
12:25 1008 29.77 837 24.72 8.2 46.8 40 -4.6 23.7
12:30 1008 29.77 837 24.72 8.2 46.8 40 -4.7 23.6
12:35 1008 29.77 837 24.72 8.3 46.9 40 -4.7 23.6
12:40 1008 29.77 837 24.72 8.2 46.8 41 -4.2 24.4
12:45 1008 29.77 837 24.72 8.2 46.7 41 -4.2 24.5
12:50 1008 29.77 837 24.72 8.2 46.7 42 -3.9 24.9
12:55 1008 29.77 837 24.72 8.2 46.8 46 -2.7 27.1
13:00 1008 29.77 837 24.72 8.1 46.5 47 -2.5 27.5
13:05 1008 29.77 837 24.72 8.1 46.5 47 -2.6 27.3
13:10 1008 29.77 837 24.72 8.1 46.6 46 -2.8 26.9
13:15 1008 29.77 837 24.72 8.2 46.8 43 -3.7 25.3
13:20 1008 29.77 837 24.72 8.4 47.1 42 -3.8 25.2
13:25 1008 29.77 837 24.72 8.5 47.3 41 -3.9 25.1
13:30 1008 29.77 837 24.72 8.4 47.2 43 -3.6 25.6
13:35 1008 29.77 837 24.72 8.4 47.1 42 -3.7 25.3
13:40 1008 29.77 837 24.72 8.3 46.9 42 -3.8 25.2
13:45 1008 29.77 837 24.72 8.3 46.9 42 -3.9 25
13:50 1008 29.77 837 24.72 8.2 46.8 42 -3.8 25.1
13:55 1008 29.77 837 24.72 8.2 46.8 42 -3.9 25
14:00 1008 29.77 837 24.72 8.1 46.6 41 -4.3 24.3
14:05 1008 29.77 837 24.72 8.1 46.6 41 -4.4 24.1
14:10 1008 29.77 837 24.72 8.1 46.6 41 -4.4 24
14:15 1008 29.77 837 24.72 8.1 46.6 40 -4.7 23.5
14:20 1008 29.77 837 24.72 8.1 46.5 40 -4.6 23.8
14:25 1008 29.77 837 24.72 8 46.5 41 -4.5 23.8
14:30 1008 29.77 837 24.72 7.9 46.2 45 -3.4 25.9
14:35 1008 29.77 837 24.72 7.5 45.4 49 -2.6 27.4
14:40 1008 29.77 837 24.72 7.2 44.9 50 -2.5 27.5
14:45 1008 29.77 837 24.72 7.1 44.8 50 -2.6 27.3
14:50 1008 29.77 837 24.72 7.1 44.8 49 -2.8 26.9
14:55 1008 29.77 837 24.72 7.1 44.8 50 -2.5 27.5
15:00 1008 29.77 837 24.72 7.2 45 51 -2.3 27.8
15:05 1008 29.77 837 24.72 7.2 44.9 51 -2.2 28
15:10 1008 29.77 837 24.72 7.2 44.9 51 -2.3 27.9
15:15 1008 29.77 837 24.72 7.1 44.7 51 -2.4 27.7
15:20 1008 29.77 837 24.72 7.1 44.8 51 -2.3 27.9
15:25 1008 29.77 837 24.72 7.1 44.7 51 -2.2 28
15:30 1008 29.77 837 24.72 7 44.5 52 -2.1 28.2
15:35 1008 29.77 837 24.72 6.9 44.4 54 -1.7 28.9
15:40 1008 29.77 837 24.72 6.7 44.1 55 -1.6 29.2
15:45 1008 29.77 837 24.72 6.7 44 56 -1.4 29.5
15:50 1008 29.77 837 24.72 6.6 43.9 58 -1.1 30
15:55 1008 29.77 837 24.72 6.4 43.6 58 -1.3 29.7
16:00 1008 29.77 837 24.72 6.1 43 60 -1 30.2
16:05 1008 29.77 837 24.72 5.8 42.4 62 -0.9 30.3
16:10 1008 29.77 838 24.75 5.6 42.1 63 -0.9 30.3
16:15 1008 29.77 838 24.75 5.5 41.8 64 -0.7 30.7
16:20 1008 29.77 838 24.75 5.4 41.8 64 -0.8 30.6
16:25 1008 29.77 837 24.72 5.2 41.4 66 -0.7 30.7
16:30 1008 29.77 837 24.72 5.1 41.3 66 -0.7 30.7
16:35 1008 29.77 838 24.75 5.1 41.2 67 -0.6 31
16:40 1008 29.77 838 24.75 5.3 41.5 67 -0.4 31.2
16:45 1009 29.8 838 24.75 5.3 41.5 67 -0.3 31.4
16:50 1009 29.8 838 24.75 5.4 41.7 66 -0.4 31.3
16:55 1009 29.8 838 24.75 5.3 41.6 67 -0.3 31.5
17:00 1009 29.8 838 24.75 4.8 40.7 70 -0.2 31.6
17:05 1009 29.8 838 24.75 4.6 40.2 71 -0.2 31.7
17:10 1009 29.8 838 24.75 4.4 40 70 -0.6 30.9
17:15 1009 29.8 838 24.75 4.4 40 72 -0.2 31.6
17:20 1009 29.8 838 24.75 4.3 39.8 72 -0.2 31.7
17:25 1009 29.8 838 24.75 4.2 39.5 74 -0 31.9
17:30 1009 29.8 838 24.75 4 39.3 73 -0.4 31.3
17:35 1009 29.8 838 24.75 4 39.2 73 -0.5 31.1
17:40 1009 29.8 838 24.75 4 39.3 73 -0.4 31.3
17:45 1009 29.8 838 24.75 4 39.2 75 -0.1 31.8
17:50 1009 29.8 838 24.75 3.8 38.9 76 -0.1 31.9
17:55 1009 29.8 838 24.75 3.7 38.7 78 0.2 32.4
18:00 1009 29.8 838 24.75 3.6 38.5 76 -0.1 31.7
18:05 1009 29.8 838 24.75 3.6 38.6 78 0.1 32.2
18:10 1009 29.8 838 24.75 3.6 38.6 78 0.2 32.3
18:15 1009 29.8 838 24.75 3.5 38.4 77 -0.1 31.9
18:20 1009 29.8 838 24.75 3.6 38.4 76 -0.2 31.6
18:25 1009 29.8 839 24.78 3.7 38.7 76 -0.2 31.7
18:30 1010 29.83 839 24.78 3.8 38.8 75 -0.2 31.6
18:35 1009 29.8 839 24.78 3.9 39 78 0.4 32.7
18:40 1010 29.83 839 24.78 3.9 39 77 0.3 32.5
18:45 1010 29.83 839 24.78 4 39.2 77 0.3 32.6
18:50 1010 29.83 839 24.78 3.9 39.1 78 0.5 33
18:55 1010 29.83 839 24.78 3.8 38.9 81 0.8 33.5
19:00 1010 29.83 839 24.78 3.6 38.5 81 0.7 33.3
19:05 1010 29.83 839 24.78 3.3 38 83 0.8 33.4
19:10 1010 29.83 839 24.78 3.2 37.7 84 0.8 33.5
19:15 1010 29.83 839 24.78 3.1 37.5 85 0.8 33.4
19:20 1010 29.83 839 24.78 3 37.4 85 0.7 33.3
19:25 1010 29.83 839 24.78 3 37.4 85 0.8 33.4
19:30 1010 29.83 839 24.78 3 37.4 85 0.8 33.4
19:35 1010 29.83 840 24.81 3 37.5 85 0.7 33.3
19:40 1010 29.83 840 24.81 3 37.4 85 0.7 33.2
19:45 1010 29.83 840 24.81 3 37.4 85 0.8 33.4
19:50 1011 29.85 840 24.81 3 37.3 85 0.7 33.3
19:55 1011 29.85 840 24.81 3 37.3 86 0.8 33.4
20:00 1011 29.85 840 24.81 2.9 37.2 86 0.8 33.4
20:05 1011 29.85 840 24.81 2.9 37.2 86 0.8 33.5
20:10 1011 29.85 840 24.81 2.8 37.1 87 0.8 33.4
20:15 1011 29.85 840 24.81 2.8 37.1 86 0.8 33.4
20:20 1011 29.85 840 24.81 2.7 36.9 87 0.8 33.4
20:25 1011 29.85 840 24.81 2.6 36.6 88 0.8 33.5
20:30 1011 29.85 840 24.81 2.4 36.3 90 0.9 33.5
20:35 1011 29.85 840 24.81 2 35.7 90 0.5 32.9
20:40 1011 29.85 840 24.81 1.9 35.5 90 0.5 32.9
20:45 1011 29.85 840 24.81 1.8 35.3 90 0.4 32.7
20:50 1011 29.85 840 24.81 1.8 35.2 90 0.3 32.6
20:55 1011 29.85 840 24.81 1.7 35 90 0.2 32.4
21:00 1011 29.85 840 24.81 1.7 35 90 0.2 32.4
21:05 1011 29.85 840 24.81 1.6 34.9 91 0.2 32.4
21:10 1011 29.85 841 24.83 1.6 34.9 90 0.2 32.3
21:15 1012 29.88 841 24.83 1.5 34.7 90 0.1 32.2
21:20 1012 29.88 841 24.83 1.5 34.7 91 0.1 32.3
21:25 1012 29.88 841 24.83 1.3 34.3 93 0.3 32.5
21:30 1012 29.88 841 24.83 1 33.7 95 0.2 32.4
21:35 1012 29.88 841 24.83 0.8 33.4 95 0 32
21:40 1012 29.88 841 24.83 0.8 33.5 95 0.1 32.2
21:45 1012 29.88 841 24.83 0.8 33.5 95 0.1 32.2
21:50 1011 29.85 841 24.83 0.8 33.4 95 0.1 32.2
21:55 1012 29.88 841 24.83 0.8 33.5 95 0 32.1
22:00 1012 29.88 841 24.83 0.9 33.5 95 0.1 32.2
22:05 1012 29.88 841 24.83 0.8 33.5 95 0.1 32.1
22:10 1012 29.88 841 24.83 0.9 33.7 94 0.1 32.1
22:15 1012 29.88 841 24.83 0.9 33.7 95 0.2 32.3
22:20 1012 29.88 841 24.83 1 33.8 94 0.1 32.2
22:25 1012 29.88 841 24.83 0.9 33.7 94 0.1 32.3
22:30 1012 29.88 841 24.83 0.9 33.7 95 0.2 32.4
22:35 1012 29.88 841 24.83 1 33.7 95 0.2 32.3
22:40 1012 29.88 841 24.83 0.9 33.7 94 0.1 32.2
22:45 1012 29.88 841 24.83 1.1 33.9 94 0.2 32.4
22:50 1012 29.88 841 24.83 1.2 34.2 93 0.2 32.4
22:55 1012 29.88 841 24.83 1.4 34.6 92 0.2 32.4
23:00 1012 29.88 841 24.83 1.6 34.9 91 0.2 32.4
23:05 1012 29.88 841 24.83 1.6 34.9 91 0.2 32.4
23:10 1012 29.88 841 24.83 1.8 35.2 87 -0.1 31.8
23:15 1012 29.88 841 24.83 1.9 35.3 88 0.1 32.1
23:20 1012 29.88 841 24.83 1.9 35.3 88 0.1 32.2
23:25 1012 29.88 842 24.86 1.8 35.3 89 0.1 32.2
23:30 1012 29.88 842 24.86 1.7 35 89 0.1 32.1
23:35 1012 29.88 841 24.83 1.6 34.9 88 -0.2 31.7
23:40 1012 29.88 841 24.83 1.6 34.9 88 -0.1 31.8
23:45 1012 29.88 841 24.83 1.6 34.8 88 -0.1 31.7
23:50 1012 29.88 841 24.83 1.6 34.9 88 -0.1 31.8
23:55 1012 29.88 842 24.86 1.7 35.1 87 -0.2 31.6
24:00 1012 29.88 842 24.86 1.6 34.9 87 -0.3 31.5